Time;durP1;ratioP1;P1;durP2;ratioP2;P2;SDS_P1;SDS_P2;PMS_P1;PMS_P2;Temp;Humidity;BMP_temperature;BMP_pressure;BME280_temperature;BME280_humidity;BME280_pressure;Samples;Min_cycle;Max_cycle;Signal;HPM_P1;HPM_P2
2023/04/27 00:01:00;;;;;;;0.90;0.90;;;;;;;;;;6336454;28;20303;-74
2023/04/27 00:04:06;;;;;;;0.90;0.90;;;;;;;;;;6335895;28;20585;-76
2023/04/27 00:07:12;;;;;;;1.00;1.00;;;;;;;;;;6337253;28;20317;-74
2023/04/27 00:10:17;;;;;;;1.20;1.10;;;;;;;;;;6335420;28;20573;-75
2023/04/27 00:13:24;;;;;;;0.97;0.97;;;;;;;;;;6335751;28;20296;-75
2023/04/27 00:16:29;;;;;;;1.40;1.30;;;;;;;;;;6336495;28;20293;-74
2023/04/27 00:19:34;;;;;;;1.17;1.17;;;;;;;;;;6335687;28;20625;-74
2023/04/27 00:22:39;;;;;;;0.90;0.90;;;;;;;;;;6335183;28;20296;-74
2023/04/27 00:25:44;;;;;;;1.90;1.10;;;;;;;;;;6336180;28;20291;-75
2023/04/27 00:28:51;;;;;;;1.00;1.00;;;;;;;;;;6335346;28;20296;-74
2023/04/27 00:31:56;;;;;;;1.20;1.20;;;;;;;;;;6335510;28;20548;-74
2023/04/27 00:35:01;;;;;;;1.50;1.00;;;;;;;;;;6334803;28;20297;-75
2023/04/27 00:38:06;;;;;;;1.10;1.10;;;;;;;;;;6335161;28;20305;-74
2023/04/27 00:41:12;;;;;;;4.03;1.37;;;;;;;;;;6335301;28;20277;-74
2023/04/27 00:44:25;;;;;;;2.23;1.00;;;;;;;;;;6333957;28;20292;-75
2023/04/27 00:47:30;;;;;;;1.13;1.07;;;;;;;;;;6334648;28;20292;-75
2023/04/27 00:50:37;;;;;;;1.10;1.10;;;;;;;;;;6335222;28;20294;-75
2023/04/27 00:53:43;;;;;;;1.50;1.00;;;;;;;;;;6334883;28;20293;-74
2023/04/27 00:56:49;;;;;;;1.10;1.10;;;;;;;;;;6335643;28;20458;-74
2023/04/27 00:59:56;;;;;;;1.03;1.03;;;;;;;;;;6319233;28;20293;-74
2023/04/27 01:03:01;;;;;;;1.00;1.00;;;;;;;;;;6308166;28;20298;-75
2023/04/27 01:06:07;;;;;;;1.23;1.13;;;;;;;;;;6311398;28;20298;-74
2023/04/27 01:09:12;;;;;;;1.30;1.20;;;;;;;;;;6309849;28;20288;-74
2023/04/27 01:12:18;;;;;;;2.10;1.10;;;;;;;;;;6309311;28;20313;-75
2023/04/27 01:15:24;;;;;;;2.07;1.03;;;;;;;;;;6308397;28;20293;-75
2023/04/27 01:18:30;;;;;;;1.20;1.20;;;;;;;;;;6324952;28;20309;-74
2023/04/27 01:21:35;;;;;;;1.20;1.20;;;;;;;;;;6324922;28;20612;-74
2023/04/27 01:24:42;;;;;;;1.20;1.20;;;;;;;;;;6309392;28;20572;-75
2023/04/27 01:27:47;;;;;;;1.20;1.20;;;;;;;;;;6307930;28;20291;-74
2023/04/27 01:30:52;;;;;;;1.10;1.10;;;;;;;;;;6325300;28;20292;-74
2023/04/27 01:33:58;;;;;;;1.10;1.10;;;;;;;;;;6309231;28;20299;-75
2023/04/27 01:37:03;;;;;;;2.87;1.10;;;;;;;;;;6309498;28;20304;-74
2023/04/27 01:40:11;;;;;;;1.13;1.13;;;;;;;;;;6307530;28;20394;-75
2023/04/27 01:43:17;;;;;;;1.40;1.33;;;;;;;;;;6308664;28;20301;-74
2023/04/27 01:46:23;;;;;;;1.03;1.03;;;;;;;;;;6325156;28;20287;-75
2023/04/27 01:49:28;;;;;;;1.37;1.27;;;;;;;;;;6308633;28;20299;-74
2023/04/27 01:52:33;;;;;;;1.00;1.00;;;;;;;;;;6309662;28;20295;-75
2023/04/27 01:55:41;;;;;;;1.30;1.30;;;;;;;;;;6308266;28;20288;-76
2023/04/27 01:58:46;;;;;;;1.20;1.20;;;;;;;;;;6323876;28;20292;-74
2023/04/27 02:01:51;;;;;;;1.10;1.10;;;;;;;;;;6307125;28;20305;-74
2023/04/27 02:04:56;;;;;;;1.10;1.00;;;;;;;;;;6307051;28;20309;-75
2023/04/27 02:08:03;;;;;;;1.00;1.00;;;;;;;;;;6306696;28;20292;-74
2023/04/27 02:11:10;;;;;;;1.10;1.10;;;;;;;;;;6309229;28;20264;-75
2023/04/27 02:14:15;;;;;;;1.13;1.13;;;;;;;;;;6324162;28;20303;-74
2023/04/27 02:17:20;;;;;;;1.10;1.10;;;;;;;;;;6308583;28;20268;-75
2023/04/27 02:20:25;;;;;;;1.47;1.20;;;;;;;;;;6308182;28;20467;-74
2023/04/27 02:23:30;;;;;;;1.23;1.20;;;;;;;;;;6310016;28;20288;-74
2023/04/27 02:26:37;;;;;;;1.20;1.20;;;;;;;;;;6309602;28;20474;-74
2023/04/27 02:29:42;;;;;;;1.10;1.10;;;;;;;;;;6307037;28;20296;-74
2023/04/27 02:32:48;;;;;;;1.30;1.30;;;;;;;;;;6308283;28;20322;-74
2023/04/27 02:35:53;;;;;;;2.73;1.33;;;;;;;;;;6324179;28;20595;-74
2023/04/27 02:38:59;;;;;;;1.33;1.03;;;;;;;;;;6308004;28;20509;-74
2023/04/27 02:42:05;;;;;;;1.30;1.30;;;;;;;;;;6309564;28;20287;-74
2023/04/27 02:45:12;;;;;;;1.10;1.10;;;;;;;;;;6308947;28;20294;-74
2023/04/27 02:48:18;;;;;;;1.00;1.00;;;;;;;;;;6308756;28;20544;-74
2023/04/27 02:51:23;;;;;;;1.10;1.10;;;;;;;;;;6309109;28;20287;-75
2023/04/27 02:54:28;;;;;;;1.27;1.27;;;;;;;;;;6308572;28;20295;-73
2023/04/27 02:57:35;;;;;;;1.00;1.00;;;;;;;;;;6311276;28;20298;-75
2023/04/27 03:00:40;;;;;;;1.50;1.13;;;;;;;;;;6328503;28;20384;-75
2023/04/27 03:03:47;;;;;;;1.10;1.10;;;;;;;;;;6293671;28;20620;-74
2023/04/27 03:06:52;;;;;;;1.27;1.17;;;;;;;;;;6313610;28;20290;-74
2023/04/27 03:09:58;;;;;;;1.30;1.20;;;;;;;;;;6312959;28;20300;-74
2023/04/27 03:13:04;;;;;;;1.67;1.20;;;;;;;;;;6287988;28;20295;-74
2023/04/27 03:16:12;;;;;;;1.10;1.10;;;;;;;;;;6270875;28;20298;-75
2023/04/27 03:19:17;;;;;;;1.43;1.10;;;;;;;;;;6294300;28;20319;-74
2023/04/27 03:22:22;;;;;;;1.20;1.20;;;;;;;;;;6313268;28;20292;-74
2023/04/27 03:25:30;;;;;;;1.90;1.10;;;;;;;;;;6312422;28;20353;-75
2023/04/27 03:28:36;;;;;;;3.20;1.00;;;;;;;;;;6312224;28;20456;-74
2023/04/27 03:31:42;;;;;;;1.20;1.20;;;;;;;;;;6312952;28;20295;-75
2023/04/27 03:34:47;;;;;;;1.20;1.20;;;;;;;;;;6311003;28;20307;-73
2023/04/27 03:37:52;;;;;;;2.77;1.30;;;;;;;;;;6294585;28;20294;-74
2023/04/27 03:40:58;;;;;;;0.90;0.90;;;;;;;;;;6313426;28;20297;-75
2023/04/27 03:44:05;;;;;;;1.20;1.20;;;;;;;;;;6292900;28;20301;-75
2023/04/27 03:47:11;;;;;;;2.63;1.30;;;;;;;;;;6311457;28;20270;-75
2023/04/27 03:50:17;;;;;;;1.10;1.10;;;;;;;;;;6313789;28;20288;-75
2023/04/27 03:53:22;;;;;;;1.50;1.40;;;;;;;;;;6312604;28;20291;-74
2023/04/27 03:56:28;;;;;;;1.33;1.23;;;;;;;;;;6294335;28;20288;-75
2023/04/27 03:59:35;;;;;;;1.80;1.23;;;;;;;;;;6310138;28;20282;-75
2023/04/27 04:02:40;;;;;;;1.97;1.40;;;;;;;;;;6302471;28;20289;-74
2023/04/27 04:05:47;;;;;;;2.63;1.30;;;;;;;;;;6311193;28;20284;-75
2023/04/27 04:08:52;;;;;;;1.30;1.20;;;;;;;;;;6326026;28;20299;-75
2023/04/27 04:11:58;;;;;;;1.70;1.00;;;;;;;;;;6310393;28;20579;-74
2023/04/27 04:15:05;;;;;;;1.80;1.30;;;;;;;;;;6311303;28;20602;-75
2023/04/27 04:18:12;;;;;;;1.13;1.13;;;;;;;;;;6326584;28;20284;-75
2023/04/27 04:21:17;;;;;;;1.23;1.10;;;;;;;;;;6312617;28;20311;-74
2023/04/27 04:24:22;;;;;;;2.57;1.20;;;;;;;;;;6311256;28;20573;-74
2023/04/27 04:27:27;;;;;;;1.10;1.00;;;;;;;;;;6309963;28;20335;-74
2023/04/27 04:30:34;;;;;;;6.57;1.17;;;;;;;;;;6312815;28;20296;-75
2023/04/27 04:33:39;;;;;;;2.67;1.23;;;;;;;;;;6309903;28;20675;-74
2023/04/27 04:36:44;;;;;;;1.60;1.10;;;;;;;;;;6327238;28;20299;-75
2023/04/27 04:39:49;;;;;;;4.70;1.20;;;;;;;;;;6309219;28;20632;-74
2023/04/27 04:42:55;;;;;;;1.43;1.20;;;;;;;;;;6310548;28;20291;-74
2023/04/27 04:46:02;;;;;;;4.80;1.17;;;;;;;;;;6311125;28;20303;-74
2023/04/27 04:49:08;;;;;;;1.50;1.40;;;;;;;;;;6326204;28;20301;-74
2023/04/27 04:52:14;;;;;;;9.90;1.40;;;;;;;;;;6310000;28;20296;-75
2023/04/27 04:55:19;;;;;;;5.27;1.20;;;;;;;;;;6326048;28;20297;-75
2023/04/27 04:58:24;;;;;;;7.63;1.70;;;;;;;;;;6310832;28;20544;-74
2023/04/27 05:01:31;;;;;;;2.63;1.23;;;;;;;;;;6333519;28;20319;-75
2023/04/27 05:04:36;;;;;;;9.03;1.50;;;;;;;;;;6335042;28;20295;-74
2023/04/27 05:07:42;;;;;;;8.03;1.50;;;;;;;;;;6335745;28;20594;-73
2023/04/27 05:10:50;;;;;;;4.83;1.50;;;;;;;;;;6334317;28;20282;-73
2023/04/27 05:13:55;;;;;;;9.53;1.53;;;;;;;;;;6335754;28;20304;-75
2023/04/27 05:17:02;;;;;;;7.30;1.30;;;;;;;;;;6337021;28;20308;-75
2023/04/27 05:20:08;;;;;;;4.53;1.33;;;;;;;;;;6333806;28;20291;-75
2023/04/27 05:23:14;;;;;;;3.27;1.50;;;;;;;;;;6334763;28;20475;-76
2023/04/27 05:26:20;;;;;;;9.80;1.43;;;;;;;;;;6335333;28;20278;-75
2023/04/27 05:29:26;;;;;;;1.63;1.07;;;;;;;;;;6334558;28;20291;-74
2023/04/27 05:32:35;;;;;;;1.33;1.30;;;;;;;;;;6316953;28;20598;-75
2023/04/27 05:35:40;;;;;;;2.53;1.17;;;;;;;;;;6334575;28;20295;-75
2023/04/27 05:38:46;;;;;;;4.00;1.53;;;;;;;;;;6334894;28;20303;-75
2023/04/27 05:41:52;;;;;;;3.93;1.30;;;;;;;;;;6334880;28;20558;-74
2023/04/27 05:44:57;;;;;;;1.37;1.20;;;;;;;;;;6333726;28;20479;-75
2023/04/27 05:48:04;;;;;;;4.97;1.20;;;;;;;;;;6333792;28;20295;-75
2023/04/27 05:51:10;;;;;;;1.80;1.50;;;;;;;;;;6333797;28;20292;-76
2023/04/27 05:54:15;;;;;;;6.80;1.40;;;;;;;;;;6334912;28;20288;-74
2023/04/27 05:57:20;;;;;;;6.10;1.30;;;;;;;;;;6334820;28;20309;-74
2023/04/27 06:00:25;;;;;;;5.93;1.43;;;;;;;;;;6334318;28;20284;-74
2023/04/27 06:03:32;;;;;;;4.30;1.30;;;;;;;;;;6333990;28;20293;-75
2023/04/27 06:06:38;;;;;;;15.17;1.50;;;;;;;;;;6335092;28;20296;-77
2023/04/27 06:09:43;;;;;;;1.93;1.43;;;;;;;;;;6334539;28;20297;-76
2023/04/27 06:12:48;;;;;;;1.97;1.20;;;;;;;;;;6335985;28;20297;-76
2023/04/27 06:15:54;;;;;;;2.73;1.27;;;;;;;;;;6335005;28;20588;-74
2023/04/27 06:19:00;;;;;;;3.60;1.20;;;;;;;;;;6316123;28;20586;-74
2023/04/27 06:22:05;;;;;;;3.03;1.37;;;;;;;;;;6334766;28;20366;-75
2023/04/27 06:25:11;;;;;;;4.93;1.10;;;;;;;;;;6334108;28;20304;-75
2023/04/27 06:28:17;;;;;;;4.00;0.97;;;;;;;;;;6334464;28;20300;-74
2023/04/27 06:31:22;;;;;;;7.23;1.10;;;;;;;;;;6320441;28;20535;-75
2023/04/27 06:34:29;;;;;;;5.80;1.20;;;;;;;;;;6340005;28;20368;-76
2023/04/27 06:37:34;;;;;;;14.53;1.73;;;;;;;;;;6339353;28;20304;-75
2023/04/27 06:40:40;;;;;;;2.40;1.03;;;;;;;;;;6339033;28;20298;-76
2023/04/27 06:43:45;;;;;;;11.40;1.50;;;;;;;;;;6337884;28;20463;-74
2023/04/27 06:46:51;;;;;;;6.13;1.23;;;;;;;;;;6339642;28;20443;-74
2023/04/27 06:49:57;;;;;;;2.03;1.00;;;;;;;;;;6339059;28;20294;-74
2023/04/27 06:53:03;;;;;;;2.42;1.20;;;;;;;;;;6337591;28;20269;-74
2023/04/27 06:56:11;;;;;;;3.03;0.95;;;;;;;;;;6338710;28;20305;-74
2023/04/27 06:59:16;;;;;;;2.25;1.48;;;;;;;;;;6338349;28;20293;-74
2023/04/27 07:02:22;;;;;;;4.57;1.20;;;;;;;;;;6338173;28;20297;-74
2023/04/27 07:05:31;;;;;;;7.30;1.20;;;;;;;;;;6338315;28;20597;-75
2023/04/27 07:08:36;;;;;;;7.80;1.20;;;;;;;;;;6338356;28;20289;-75
2023/04/27 07:11:42;;;;;;;3.03;0.95;;;;;;;;;;6338950;28;20290;-75
2023/04/27 07:14:49;;;;;;;25.27;1.88;;;;;;;;;;6338078;28;20306;-75
2023/04/27 07:17:55;;;;;;;1.33;1.10;;;;;;;;;;6337583;28;20590;-74
2023/04/27 07:21:01;;;;;;;3.40;1.58;;;;;;;;;;6337729;28;20326;-74
2023/04/27 07:24:07;;;;;;;5.18;1.15;;;;;;;;;;6337852;28;20306;-74
2023/04/27 07:27:13;;;;;;;26.85;2.25;;;;;;;;;;6320057;28;20298;-75
2023/04/27 07:30:19;;;;;;;5.25;1.20;;;;;;;;;;6337368;28;20301;-74
2023/04/27 07:33:26;;;;;;;0.90;0.85;;;;;;;;;;6338174;28;20286;-74
2023/04/27 07:36:33;;;;;;;0.98;0.98;;;;;;;;;;6338226;28;20586;-76
2023/04/27 07:39:38;;;;;;;1.92;0.90;;;;;;;;;;6323559;28;20465;-75
2023/04/27 07:42:43;;;;;;;3.85;1.10;;;;;;;;;;6312458;28;20299;-76
2023/04/27 07:45:49;;;;;;;0.90;0.90;;;;;;;;;;6312200;28;20612;-75
2023/04/27 07:48:58;;;;;;;1.05;1.02;;;;;;;;;;6311749;28;20302;-75
2023/04/27 07:52:05;;;;;;;1.00;1.00;;;;;;;;;;6312762;28;20287;-74
2023/04/27 07:55:12;;;;;;;3.13;1.00;;;;;;;;;;6312559;28;20314;-75
2023/04/27 07:58:18;;;;;;;5.55;1.33;;;;;;;;;;6312101;28;20293;-76
2023/04/27 08:01:24;;;;;;;26.67;2.10;;;;;;;;;;6312697;28;20586;-75
2023/04/27 08:04:29;;;;;;;7.18;1.15;;;;;;;;;;6312332;28;20603;-75
2023/04/27 08:07:36;;;;;;;8.48;1.15;;;;;;;;;;6312521;28;20297;-74
2023/04/27 08:10:48;;;;;;;6.10;1.15;;;;;;;;;;6328478;28;20297;-76
2023/04/27 08:13:53;;;;;;;11.68;1.17;;;;;;;;;;6336999;28;20290;-74
2023/04/27 08:16:58;;;;;;;3.33;1.10;;;;;;;;;;6337058;28;20306;-75
2023/04/27 08:20:06;;;;;;;1.45;1.00;;;;;;;;;;6336064;28;20293;-75
2023/04/27 08:23:13;;;;;;;3.40;0.90;;;;;;;;;;6336206;28;20293;-76
2023/04/27 08:26:18;;;;;;;1.58;1.10;;;;;;;;;;6337013;28;20424;-75
2023/04/27 08:29:23;;;;;;;1.13;0.90;;;;;;;;;;6336225;28;20294;-75
2023/04/27 08:32:33;;;;;;;1.10;1.10;;;;;;;;;;6336790;28;20581;-75
2023/04/27 08:35:38;;;;;;;2.10;1.10;;;;;;;;;;6336759;28;20605;-75
2023/04/27 08:38:45;;;;;;;1.75;1.13;;;;;;;;;;6336233;28;20332;-72
2023/04/27 08:41:50;;;;;;;7.25;1.15;;;;;;;;;;6336894;28;20286;-75
2023/04/27 08:44:56;;;;;;;1.02;1.02;;;;;;;;;;6336288;28;20472;-76
2023/04/27 08:48:01;;;;;;;2.35;1.35;;;;;;;;;;6318026;28;20298;-73
2023/04/27 08:51:09;;;;;;;5.07;1.05;;;;;;;;;;6336353;28;20282;-74
2023/04/27 08:54:15;;;;;;;4.05;1.20;;;;;;;;;;6335768;28;20297;-76
2023/04/27 08:57:23;;;;;;;4.30;0.93;;;;;;;;;;6336118;28;20506;-75
2023/04/27 09:00:37;;;;;;;14.23;2.05;;;;;;;;;;6335673;28;20290;-74
2023/04/27 09:03:45;;;;;;;6.85;1.30;;;;;;;;;;6335872;28;20285;-75
2023/04/27 09:06:50;;;;;;;1.38;1.13;;;;;;;;;;6336437;28;20477;-73
2023/04/27 09:10:04;;;;;;;9.43;1.40;;;;;;;;;;6335663;28;20290;-75
2023/04/27 09:13:10;;;;;;;18.63;1.50;;;;;;;;;;6335906;28;20373;-76
2023/04/27 09:16:16;;;;;;;3.90;1.10;;;;;;;;;;6339442;28;20281;-77
2023/04/27 09:19:25;;;;;;;9.40;1.20;;;;;;;;;;6338410;28;20297;-77
2023/04/27 09:22:30;;;;;;;3.30;1.10;;;;;;;;;;6337407;28;20294;-76
2023/04/27 09:25:36;;;;;;;1.65;1.00;;;;;;;;;;6335869;28;20297;-72
2023/04/27 09:28:49;;;;;;;2.28;1.20;;;;;;;;;;6335491;28;20293;-75
2023/04/27 09:31:54;;;;;;;3.88;1.10;;;;;;;;;;6335656;28;20286;-75
2023/04/27 09:34:59;;;;;;;12.80;1.45;;;;;;;;;;6335120;28;20317;-75
2023/04/27 09:38:05;;;;;;;29.40;2.53;;;;;;;;;;6315978;28;20305;-76
2023/04/27 09:41:14;;;;;;;1.38;0.95;;;;;;;;;;6335113;28;20261;-74
2023/04/27 09:44:19;;;;;;;1.00;1.00;;;;;;;;;;6334806;28;20289;-74
2023/04/27 09:47:27;;;;;;;1.40;0.98;;;;;;;;;;6335499;28;20301;-75
2023/04/27 09:50:36;;;;;;;1.00;0.88;;;;;;;;;;6335027;28;20281;-75
2023/04/27 09:53:46;;;;;;;2.25;1.30;;;;;;;;;;6334888;28;20286;-74
2023/04/27 09:57:01;;;;;;;4.53;1.52;;;;;;;;;;6317127;28;20293;-76
2023/04/27 10:00:19;;;;;;;1.67;1.50;;;;;;;;;;6334503;28;20586;-74
2023/04/27 10:03:42;;;;;;;3.60;1.27;;;;;;;;;;6334728;28;20290;-74
2023/04/27 10:07:00;;;;;;;9.55;1.58;;;;;;;;;;6334374;28;20477;-74
2023/04/27 10:10:06;;;;;;;3.15;2.47;;;;;;;;;;6334442;28;20313;-75
2023/04/27 10:13:22;;;;;;;5.90;1.08;;;;;;;;;;6334674;28;20363;-75
2023/04/27 10:16:27;;;;;;;2.78;1.30;;;;;;;;;;6334980;28;20301;-73
2023/04/27 10:19:33;;;;;;;3.95;1.23;;;;;;;;;;6334554;28;20301;-75
2023/04/27 10:22:40;;;;;;;3.13;1.10;;;;;;;;;;6317614;28;20293;-75
2023/04/27 10:25:47;;;;;;;3.78;1.40;;;;;;;;;;6333990;28;20577;-75
2023/04/27 10:29:06;;;;;;;5.07;1.42;;;;;;;;;;6334141;28;20593;-74
2023/04/27 10:32:13;;;;;;;1.20;1.20;;;;;;;;;;6333758;28;20265;-74
2023/04/27 10:35:18;;;;;;;3.70;1.20;;;;;;;;;;6334239;28;20468;-73
2023/04/27 10:38:29;;;;;;;5.00;1.45;;;;;;;;;;6334354;28;20297;-74
2023/04/27 10:41:37;;;;;;;1.67;1.10;;;;;;;;;;6334500;28;20285;-73
2023/04/27 10:44:58;;;;;;;4.28;1.02;;;;;;;;;;6335015;28;20469;-72
2023/04/27 10:48:07;;;;;;;8.32;1.33;;;;;;;;;;6336528;28;20317;-73
2023/04/27 10:51:16;;;;;;;4.82;1.27;;;;;;;;;;6334483;28;20290;-73
2023/04/27 10:54:21;;;;;;;6.53;1.30;;;;;;;;;;6334049;28;20290;-73
2023/04/27 10:57:27;;;;;;;1.40;1.40;;;;;;;;;;6334763;28;20290;-72
2023/04/27 11:00:43;;;;;;;17.08;2.10;;;;;;;;;;6336794;28;20487;-73
2023/04/27 11:03:56;;;;;;;0.98;0.98;;;;;;;;;;6291245;28;20299;-72
2023/04/27 11:07:03;;;;;;;1.40;1.20;;;;;;;;;;6311540;28;20283;-72
2023/04/27 11:10:09;;;;;;;1.08;1.00;;;;;;;;;;6302300;28;20282;-71
2023/04/27 11:13:16;;;;;;;1.35;1.10;;;;;;;;;;6311125;28;20286;-72
2023/04/27 11:16:23;;;;;;;1.88;1.20;;;;;;;;;;6310865;28;20294;-71
2023/04/27 11:19:29;;;;;;;3.28;1.30;;;;;;;;;;6314868;28;20294;-72
2023/04/27 11:22:35;;;;;;;1.08;1.02;;;;;;;;;;6314550;28;20286;-74
2023/04/27 11:25:41;;;;;;;1.27;1.17;;;;;;;;;;6311890;28;20306;-74
2023/04/27 11:28:57;;;;;;;1.80;1.60;;;;;;;;;;6313046;28;20286;-74
2023/04/27 11:32:04;;;;;;;0.90;0.90;;;;;;;;;;6312104;28;20271;-75
2023/04/27 11:35:10;;;;;;;2.92;1.00;;;;;;;;;;6295108;28;20307;-74
2023/04/27 11:38:17;;;;;;;1.90;1.85;;;;;;;;;;6312816;28;20590;-74
2023/04/27 11:41:23;;;;;;;1.75;1.70;;;;;;;;;;6313153;28;20464;-74
2023/04/27 11:44:28;;;;;;;1.25;1.25;;;;;;;;;;6312343;28;20314;-73
2023/04/27 11:47:35;;;;;;;2.17;1.10;;;;;;;;;;6313205;28;20290;-74
2023/04/27 11:50:41;;;;;;;2.47;1.92;;;;;;;;;;6312233;28;20293;-73
2023/04/27 11:53:50;;;;;;;1.15;1.00;;;;;;;;;;6312376;28;20290;-74
2023/04/27 11:57:05;;;;;;;1.13;1.10;;;;;;;;;;6312546;28;20294;-75
2023/04/27 12:00:14;;;;;;;2.88;1.10;;;;;;;;;;6312270;28;20298;-74
2023/04/27 12:03:20;;;;;;;1.90;1.10;;;;;;;;;;6307561;28;20574;-74
2023/04/27 12:06:27;;;;;;;1.10;1.10;;;;;;;;;;6312704;28;20286;-75
2023/04/27 12:09:37;;;;;;;1.85;1.10;;;;;;;;;;6313034;28;20294;-75
2023/04/27 12:12:43;;;;;;;1.00;1.00;;;;;;;;;;6288176;28;20299;-74
2023/04/27 12:15:48;;;;;;;1.48;1.25;;;;;;;;;;6287327;28;20566;-74
2023/04/27 12:18:55;;;;;;;1.25;1.23;;;;;;;;;;6288902;28;20302;-75
2023/04/27 12:22:00;;;;;;;1.10;1.10;;;;;;;;;;6288666;28;20287;-76
2023/04/27 12:25:06;;;;;;;1.58;1.45;;;;;;;;;;6287795;28;20481;-76
2023/04/27 12:28:17;;;;;;;1.00;1.00;;;;;;;;;;6287227;28;20291;-75
2023/04/27 12:31:24;;;;;;;0.98;0.90;;;;;;;;;;6271468;28;20290;-76
2023/04/27 12:34:33;;;;;;;0.80;0.80;;;;;;;;;;6287332;28;20299;-73
2023/04/27 12:37:38;;;;;;;1.05;1.00;;;;;;;;;;6288555;28;20579;-73
2023/04/27 12:40:43;;;;;;;1.10;1.10;;;;;;;;;;6287121;28;20298;-73
2023/04/27 12:43:49;;;;;;;1.95;1.10;;;;;;;;;;6286601;28;20302;-75
2023/04/27 12:46:55;;;;;;;1.02;0.93;;;;;;;;;;6287304;28;20291;-75
2023/04/27 12:50:04;;;;;;;1.10;1.10;;;;;;;;;;6286626;28;20295;-75
2023/04/27 12:53:09;;;;;;;1.10;1.10;;;;;;;;;;6283743;28;20295;-75
2023/04/27 12:56:15;;;;;;;0.80;0.80;;;;;;;;;;6302639;28;20268;-75
2023/04/27 12:59:20;;;;;;;2.33;1.13;;;;;;;;;;6301390;28;20298;-74
2023/04/27 13:02:27;;;;;;;0.90;0.90;;;;;;;;;;6301983;28;20301;-75
2023/04/27 13:05:34;;;;;;;0.90;0.90;;;;;;;;;;6311515;28;20290;-76
2023/04/27 13:08:40;;;;;;;0.98;0.98;;;;;;;;;;6310460;28;20286;-72
2023/04/27 13:11:46;;;;;;;1.23;1.02;;;;;;;;;;6328665;28;20285;-74
2023/04/27 13:14:51;;;;;;;1.95;1.00;;;;;;;;;;6318613;28;20289;-75
2023/04/27 13:17:57;;;;;;;1.55;1.10;;;;;;;;;;6336439;28;20294;-72
2023/04/27 13:21:05;;;;;;;3.28;2.65;;;;;;;;;;6335718;28;20297;-73
2023/04/27 13:24:12;;;;;;;17.30;9.30;;;;;;;;;;6335515;28;20559;-73
2023/04/27 13:27:19;;;;;;;3.05;2.83;;;;;;;;;;6335650;28;20326;-72
2023/04/27 13:30:24;;;;;;;2.15;2.03;;;;;;;;;;6335516;28;20297;-71
2023/04/27 13:33:29;;;;;;;3.17;1.27;;;;;;;;;;6335298;28;20301;-73
2023/04/27 13:36:36;;;;;;;1.20;1.20;;;;;;;;;;6337182;28;20293;-76
2023/04/27 13:39:41;;;;;;;1.85;0.90;;;;;;;;;;6333854;28;20289;-74
2023/04/27 13:42:46;;;;;;;1.02;0.82;;;;;;;;;;6300176;28;20479;-75
2023/04/27 13:45:53;;;;;;;1.08;1.08;;;;;;;;;;6335569;28;20285;-75
2023/04/27 13:48:58;;;;;;;1.45;1.10;;;;;;;;;;6334185;28;20301;-74
2023/04/27 13:52:05;;;;;;;3.35;1.10;;;;;;;;;;6335035;28;20331;-74
2023/04/27 13:55:12;;;;;;;1.85;1.25;;;;;;;;;;6333641;28;20306;-76
2023/04/27 13:58:18;;;;;;;1.98;1.70;;;;;;;;;;6316341;28;20616;-75
2023/04/27 14:01:23;;;;;;;4.75;1.40;;;;;;;;;;6334862;28;20352;-78
2023/04/27 14:04:29;;;;;;;1.42;1.25;;;;;;;;;;6334698;28;20298;-75
2023/04/27 14:07:37;;;;;;;2.95;1.42;;;;;;;;;;6335550;28;20282;-76
2023/04/27 14:10:42;;;;;;;1.20;1.20;;;;;;;;;;6334041;28;20306;-75
2023/04/27 14:13:49;;;;;;;2.50;0.90;;;;;;;;;;6334340;28;20298;-75
2023/04/27 14:16:55;;;;;;;1.10;1.10;;;;;;;;;;6335234;28;20289;-74
2023/04/27 14:20:01;;;;;;;1.50;1.02;;;;;;;;;;6334699;28;20302;-75
2023/04/27 14:23:07;;;;;;;1.33;1.00;;;;;;;;;;6334076;28;20293;-74
2023/04/27 14:26:13;;;;;;;1.67;1.00;;;;;;;;;;6334858;28;20345;-73
2023/04/27 14:29:18;;;;;;;1.17;1.17;;;;;;;;;;6334038;28;20289;-73
2023/04/27 14:32:23;;;;;;;2.67;0.95;;;;;;;;;;6334340;28;20293;-74
2023/04/27 14:35:29;;;;;;;4.93;1.00;;;;;;;;;;6316305;28;20290;-73
2023/04/27 14:38:35;;;;;;;0.80;0.80;;;;;;;;;;6333948;28;20293;-74
2023/04/27 14:41:40;;;;;;;1.88;1.10;;;;;;;;;;6334082;28;20289;-73
2023/04/27 14:44:45;;;;;;;4.03;1.02;;;;;;;;;;6334135;28;20286;-74
2023/04/27 14:47:53;;;;;;;1.10;1.02;;;;;;;;;;6333892;28;20298;-74
2023/04/27 14:50:59;;;;;;;1.85;1.10;;;;;;;;;;6335515;28;20317;-74
2023/04/27 14:54:06;;;;;;;1.10;1.10;;;;;;;;;;6338603;28;20293;-73
2023/04/27 14:57:11;;;;;;;2.65;1.10;;;;;;;;;;6339129;28;20286;-74
2023/04/27 15:00:17;;;;;;;1.05;0.93;;;;;;;;;;6338107;28;20301;-74
2023/04/27 15:03:22;;;;;;;4.50;1.10;;;;;;;;;;6338490;28;20294;-74
2023/04/27 15:06:29;;;;;;;2.72;0.90;;;;;;;;;;6338976;28;20285;-73
2023/04/27 15:09:36;;;;;;;1.65;1.00;;;;;;;;;;6320452;28;20293;-74
2023/04/27 15:12:41;;;;;;;2.10;1.15;;;;;;;;;;6338889;28;20293;-74
2023/04/27 15:15:47;;;;;;;2.28;1.40;;;;;;;;;;6337872;28;20285;-75
2023/04/27 15:18:53;;;;;;;1.20;1.20;;;;;;;;;;6338573;28;20294;-75
2023/04/27 15:21:58;;;;;;;4.90;1.10;;;;;;;;;;6338897;28;20298;-74
2023/04/27 15:25:05;;;;;;;6.18;1.05;;;;;;;;;;6337667;28;20298;-75
2023/04/27 15:28:13;;;;;;;4.05;1.00;;;;;;;;;;6337846;28;20294;-74
2023/04/27 15:31:18;;;;;;;1.17;1.08;;;;;;;;;;6338233;28;20289;-74
2023/04/27 15:34:23;;;;;;;4.50;1.08;;;;;;;;;;6337756;28;20289;-74
2023/04/27 15:37:29;;;;;;;2.75;0.93;;;;;;;;;;6338369;28;20570;-75
2023/04/27 15:40:36;;;;;;;2.60;1.23;;;;;;;;;;6337350;28;20297;-76
2023/04/27 15:43:41;;;;;;;6.22;1.20;;;;;;;;;;6337684;28;20289;-74
2023/04/27 15:46:46;;;;;;;0.93;0.90;;;;;;;;;;6338267;28;20297;-74
2023/04/27 15:49:51;;;;;;;1.20;1.20;;;;;;;;;;6337760;28;20293;-76
2023/04/27 15:53:01;;;;;;;2.40;0.90;;;;;;;;;;6336952;28;20317;-76
2023/04/27 15:56:08;;;;;;;1.75;0.90;;;;;;;;;;6337577;28;20274;-75
2023/04/27 15:59:13;;;;;;;0.98;0.98;;;;;;;;;;6336997;28;20581;-75
2023/04/27 16:02:19;;;;;;;1.10;1.00;;;;;;;;;;6336260;28;20302;-75
2023/04/27 16:05:24;;;;;;;6.60;1.30;;;;;;;;;;6337103;28;20289;-75
2023/04/27 16:08:31;;;;;;;4.65;1.27;;;;;;;;;;6337090;28;20281;-75
2023/04/27 16:11:37;;;;;;;4.65;1.15;;;;;;;;;;6337456;28;20473;-75
2023/04/27 16:14:43;;;;;;;4.13;0.90;;;;;;;;;;6336960;28;20289;-75
2023/04/27 16:17:48;;;;;;;4.47;1.02;;;;;;;;;;6336628;28;20289;-75
2023/04/27 16:20:53;;;;;;;1.65;1.00;;;;;;;;;;6337096;28;20313;-74
2023/04/27 16:23:58;;;;;;;1.05;1.00;;;;;;;;;;6336530;28;20297;-75
2023/04/27 16:27:06;;;;;;;0.90;0.90;;;;;;;;;;6337171;28;20297;-76
2023/04/27 16:30:13;;;;;;;3.00;0.80;;;;;;;;;;6336923;28;20289;-75
2023/04/27 16:33:20;;;;;;;1.00;1.00;;;;;;;;;;6336225;28;20293;-75
2023/04/27 16:36:27;;;;;;;0.77;0.77;;;;;;;;;;6337017;28;20294;-75
2023/04/27 16:39:32;;;;;;;0.70;0.70;;;;;;;;;;6336381;28;20297;-76
2023/04/27 16:42:38;;;;;;;0.95;0.95;;;;;;;;;;6336481;28;20298;-75
2023/04/27 16:45:43;;;;;;;1.20;1.20;;;;;;;;;;6336632;28;20297;-74
2023/04/27 16:48:49;;;;;;;1.20;1.17;;;;;;;;;;6336333;28;20475;-75
2023/04/27 16:51:55;;;;;;;1.02;1.02;;;;;;;;;;6336780;28;20302;-74
2023/04/27 16:55:00;;;;;;;1.23;1.05;;;;;;;;;;6336404;28;20553;-75
2023/04/27 16:58:07;;;;;;;0.98;0.80;;;;;;;;;;6318458;28;20306;-76
2023/04/27 17:01:12;;;;;;;0.80;0.80;;;;;;;;;;6318084;28;20305;-76
2023/04/27 17:04:17;;;;;;;1.13;0.98;;;;;;;;;;6318149;28;20294;-75
2023/04/27 17:07:27;;;;;;;0.88;0.88;;;;;;;;;;6334193;28;20293;-76
2023/04/27 17:10:37;;;;;;;1.10;1.10;;;;;;;;;;6335294;28;20285;-76
2023/04/27 17:13:43;;;;;;;0.90;0.90;;;;;;;;;;6336344;28;20502;-75
2023/04/27 17:16:49;;;;;;;1.65;1.30;;;;;;;;;;6336432;28;20294;-74
2023/04/27 17:19:54;;;;;;;4.32;1.20;;;;;;;;;;6308383;28;20432;-76
2023/04/27 17:22:59;;;;;;;1.30;1.20;;;;;;;;;;6334808;28;20309;-76
2023/04/27 17:26:06;;;;;;;2.83;1.20;;;;;;;;;;6334962;28;20266;-75
2023/04/27 17:29:14;;;;;;;1.00;1.00;;;;;;;;;;6335717;28;20555;-74
2023/04/27 17:32:20;;;;;;;1.20;1.20;;;;;;;;;;6336486;28;20272;-74
2023/04/27 17:35:25;;;;;;;1.33;1.33;;;;;;;;;;6335319;28;20305;-74
2023/04/27 17:38:30;;;;;;;0.90;0.90;;;;;;;;;;6335850;28;20311;-76
2023/04/27 17:41:36;;;;;;;1.00;1.00;;;;;;;;;;6318188;28;20290;-75
2023/04/27 17:44:44;;;;;;;0.70;0.70;;;;;;;;;;6335565;28;20241;-75
2023/04/27 17:47:49;;;;;;;0.90;0.90;;;;;;;;;;6334996;28;20297;-75
2023/04/27 17:50:54;;;;;;;1.75;0.73;;;;;;;;;;6336058;28;20301;-74
2023/04/27 17:54:00;;;;;;;3.20;1.10;;;;;;;;;;6335574;28;20297;-75
2023/04/27 17:57:05;;;;;;;1.75;0.93;;;;;;;;;;6335767;28;20297;-75
2023/04/27 18:00:16;;;;;;;1.10;1.10;;;;;;;;;;6335149;28;20289;-75
2023/04/27 18:03:23;;;;;;;5.33;1.20;;;;;;;;;;6334848;28;20293;-76
2023/04/27 18:06:28;;;;;;;2.97;1.10;;;;;;;;;;6334493;28;20578;-76
2023/04/27 18:09:34;;;;;;;3.03;1.23;;;;;;;;;;6334934;28;20290;-75
2023/04/27 18:12:39;;;;;;;1.08;1.08;;;;;;;;;;6335526;28;20317;-75
2023/04/27 18:15:46;;;;;;;5.25;1.88;;;;;;;;;;6334831;28;20302;-75
2023/04/27 18:18:51;;;;;;;1.70;1.60;;;;;;;;;;6334020;28;20294;-75
2023/04/27 18:21:57;;;;;;;3.05;1.83;;;;;;;;;;6335333;28;20298;-76
2023/04/27 18:25:02;;;;;;;3.20;2.07;;;;;;;;;;6334652;28;20301;-75
2023/04/27 18:28:07;;;;;;;4.18;1.70;;;;;;;;;;6339929;28;20581;-75
2023/04/27 18:31:19;;;;;;;4.00;1.77;;;;;;;;;;6340134;28;20293;-77
2023/04/27 18:34:24;;;;;;;4.30;1.30;;;;;;;;;;6340050;28;20309;-75
2023/04/27 18:37:30;;;;;;;1.70;1.30;;;;;;;;;;6340317;28;20597;-76